sensor_id;sensor_type;location;lat;lon;timestamp;pressure;altitude;pressure_sealevel;temperature;humidity
43155;BME280;34212;51.018;13.586;2022-12-08T00:00:26;97204.63;;;4.03;91.89
43155;BME280;34212;51.018;13.586;2022-12-08T00:05:28;97197.53;;;4.03;91.47
43155;BME280;34212;51.018;13.586;2022-12-08T00:10:47;97185.47;;;4.01;91.11
43155;BME280;34212;51.018;13.586;2022-12-08T00:15:50;97188.56;;;3.96;91.04
43155;BME280;34212;51.018;13.586;2022-12-08T00:20:56;97192.16;;;3.95;90.59
43155;BME280;34212;51.018;13.586;2022-12-08T00:26:02;97190.84;;;3.91;90.81
43155;BME280;34212;51.018;13.586;2022-12-08T00:31:09;97188.66;;;3.86;90.76
43155;BME280;34212;51.018;13.586;2022-12-08T00:36:13;97186.16;;;3.85;90.46
43155;BME280;34212;51.018;13.586;2022-12-08T00:41:17;97183.16;;;3.80;90.28
43155;BME280;34212;51.018;13.586;2022-12-08T00:46:19;97179.47;;;3.73;90.61
43155;BME280;34212;51.018;13.586;2022-12-08T00:51:21;97180.47;;;3.72;90.63
43155;BME280;34212;51.018;13.586;2022-12-08T00:56:23;97177.31;;;3.68;91.16
43155;BME280;34212;51.018;13.586;2022-12-08T01:01:24;97177.44;;;3.66;90.54
43155;BME280;34212;51.018;13.586;2022-12-08T01:06:26;97177.44;;;3.66;90.70
43155;BME280;34212;51.018;13.586;2022-12-08T01:11:27;97175.50;;;3.68;90.70
43155;BME280;34212;51.018;13.586;2022-12-08T01:16:33;97172.69;;;3.70;90.57
43155;BME280;34212;51.018;13.586;2022-12-08T01:21:35;97185.75;;;3.72;90.96
43155;BME280;34212;51.018;13.586;2022-12-08T01:26:37;97178.19;;;3.77;90.51
43155;BME280;34212;51.018;13.586;2022-12-08T01:31:39;97170.66;;;3.82;91.35
43155;BME280;34212;51.018;13.586;2022-12-08T01:36:41;97169.13;;;3.79;90.25
43155;BME280;34212;51.018;13.586;2022-12-08T01:41:45;97160.03;;;3.74;89.83
43155;BME280;34212;51.018;13.586;2022-12-08T01:46:48;97150.78;;;3.69;89.64
43155;BME280;34212;51.018;13.586;2022-12-08T01:57:47;97147.84;;;3.55;90.45
43155;BME280;34212;51.018;13.586;2022-12-08T02:03:05;97137.91;;;3.48;90.44
43155;BME280;34212;51.018;13.586;2022-12-08T02:08:10;97139.34;;;3.43;89.61
43155;BME280;34212;51.018;13.586;2022-12-08T02:13:16;97134.38;;;3.40;89.71
43155;BME280;34212;51.018;13.586;2022-12-08T02:23:44;97121.94;;;3.32;89.92
43155;BME280;34212;51.018;13.586;2022-12-08T02:34:06;97126.78;;;3.37;90.00
43155;BME280;34212;51.018;13.586;2022-12-08T02:39:27;97125.19;;;3.44;90.82
43155;BME280;34212;51.018;13.586;2022-12-08T02:44:50;97112.69;;;3.46;90.65
43155;BME280;34212;51.018;13.586;2022-12-08T02:49:54;97115.97;;;3.48;90.81
43155;BME280;34212;51.018;13.586;2022-12-08T02:55:10;97104.81;;;3.54;90.54
43155;BME280;34212;51.018;13.586;2022-12-08T03:00:17;97106.03;;;3.60;90.99
43155;BME280;34212;51.018;13.586;2022-12-08T03:10:47;97098.34;;;3.66;90.42
43155;BME280;34212;51.018;13.586;2022-12-08T03:15:54;97092.75;;;3.69;90.13
43155;BME280;34212;51.018;13.586;2022-12-08T03:20:56;97090.41;;;3.66;90.62
43155;BME280;34212;51.018;13.586;2022-12-08T03:26:28;97092.38;;;3.64;90.13
43155;BME280;34212;51.018;13.586;2022-12-08T03:31:33;97095.31;;;3.61;90.41
43155;BME280;34212;51.018;13.586;2022-12-08T03:36:38;97087.41;;;3.61;90.84
43155;BME280;34212;51.018;13.586;2022-12-08T03:41:40;97072.28;;;3.63;91.14
43155;BME280;34212;51.018;13.586;2022-12-08T03:46:41;97069.19;;;3.68;91.00
43155;BME280;34212;51.018;13.586;2022-12-08T03:51:43;97069.84;;;3.70;90.68
43155;BME280;34212;51.018;13.586;2022-12-08T03:56:44;97068.03;;;3.70;91.27
43155;BME280;34212;51.018;13.586;2022-12-08T04:01:46;97072.34;;;3.72;91.24
43155;BME280;34212;51.018;13.586;2022-12-08T04:06:47;97077.44;;;3.73;91.60
43155;BME280;34212;51.018;13.586;2022-12-08T04:11:49;97057.03;;;3.75;91.43
43155;BME280;34212;51.018;13.586;2022-12-08T04:16:50;97054.53;;;3.74;90.78
43155;BME280;34212;51.018;13.586;2022-12-08T04:21:52;97051.88;;;3.74;91.52
43155;BME280;34212;51.018;13.586;2022-12-08T04:26:53;97057.16;;;3.74;91.18
43155;BME280;34212;51.018;13.586;2022-12-08T04:31:55;97049.25;;;3.74;91.58
43155;BME280;34212;51.018;13.586;2022-12-08T04:36:56;97046.63;;;3.74;91.05
43155;BME280;34212;51.018;13.586;2022-12-08T04:41:58;97037.88;;;3.73;91.61
43155;BME280;34212;51.018;13.586;2022-12-08T04:46:59;97044.16;;;3.72;91.03
43155;BME280;34212;51.018;13.586;2022-12-08T04:52:01;97036.38;;;3.70;91.29
43155;BME280;34212;51.018;13.586;2022-12-08T04:57:03;97032.09;;;3.69;91.61
43155;BME280;34212;51.018;13.586;2022-12-08T05:02:04;97025.69;;;3.72;91.40
43155;BME280;34212;51.018;13.586;2022-12-08T05:07:06;97030.44;;;3.68;90.71
43155;BME280;34212;51.018;13.586;2022-12-08T05:12:07;97023.69;;;3.66;91.59
43155;BME280;34212;51.018;13.586;2022-12-08T05:17:09;97013.63;;;3.69;91.48
43155;BME280;34212;51.018;13.586;2022-12-08T05:22:11;97020.56;;;3.70;91.44
43155;BME280;34212;51.018;13.586;2022-12-08T05:27:12;97014.66;;;3.77;91.16
43155;BME280;34212;51.018;13.586;2022-12-08T05:32:14;97012.69;;;3.79;90.96
43155;BME280;34212;51.018;13.586;2022-12-08T05:37:15;97014.66;;;3.77;91.09
43155;BME280;34212;51.018;13.586;2022-12-08T05:42:17;97013.19;;;3.74;90.72
43155;BME280;34212;51.018;13.586;2022-12-08T05:47:25;97005.03;;;3.67;90.97
43155;BME280;34212;51.018;13.586;2022-12-08T05:52:29;97016.59;;;3.66;90.91
43155;BME280;34212;51.018;13.586;2022-12-08T05:57:30;97010.63;;;3.64;91.18
43155;BME280;34212;51.018;13.586;2022-12-08T06:02:32;97013.44;;;3.63;90.59
43155;BME280;34212;51.018;13.586;2022-12-08T06:07:34;97013.91;;;3.58;90.49
43155;BME280;34212;51.018;13.586;2022-12-08T06:12:36;97020.16;;;3.57;90.46
43155;BME280;34212;51.018;13.586;2022-12-08T06:17:37;97029.75;;;3.58;91.05
43155;BME280;34212;51.018;13.586;2022-12-08T06:22:39;97023.81;;;3.64;91.08
43155;BME280;34212;51.018;13.586;2022-12-08T06:27:40;97028.47;;;3.70;91.38
43155;BME280;34212;51.018;13.586;2022-12-08T06:32:42;97029.53;;;3.78;91.31
43155;BME280;34212;51.018;13.586;2022-12-08T06:37:43;97032.50;;;3.83;91.31
43155;BME280;34212;51.018;13.586;2022-12-08T06:42:44;97038.13;;;3.88;91.43
43155;BME280;34212;51.018;13.586;2022-12-08T06:47:47;97030.59;;;3.93;91.79
43155;BME280;34212;51.018;13.586;2022-12-08T06:52:48;97035.88;;;3.93;91.74
43155;BME280;34212;51.018;13.586;2022-12-08T06:58:04;97043.09;;;3.91;91.43
43155;BME280;34212;51.018;13.586;2022-12-08T07:03:07;97039.13;;;3.87;91.23
43155;BME280;34212;51.018;13.586;2022-12-08T07:08:09;97049.31;;;3.82;91.15
43155;BME280;34212;51.018;13.586;2022-12-08T07:13:11;97047.91;;;3.69;90.92
43155;BME280;34212;51.018;13.586;2022-12-08T07:18:12;97035.31;;;3.55;90.98
43155;BME280;34212;51.018;13.586;2022-12-08T07:23:14;97046.09;;;3.44;90.61
43155;BME280;34212;51.018;13.586;2022-12-08T07:28:15;97037.59;;;3.32;90.71
43155;BME280;34212;51.018;13.586;2022-12-08T07:33:17;97031.50;;;3.32;90.93
43155;BME280;34212;51.018;13.586;2022-12-08T07:38:18;97027.88;;;3.33;90.92
43155;BME280;34212;51.018;13.586;2022-12-08T07:43:20;97026.75;;;3.35;90.86
43155;BME280;34212;51.018;13.586;2022-12-08T07:48:22;97027.38;;;3.29;90.55
43155;BME280;34212;51.018;13.586;2022-12-08T07:53:24;97035.66;;;3.34;90.95
43155;BME280;34212;51.018;13.586;2022-12-08T07:58:26;97031.59;;;3.40;91.10
43155;BME280;34212;51.018;13.586;2022-12-08T08:03:28;97027.66;;;3.44;90.93
43155;BME280;34212;51.018;13.586;2022-12-08T08:08:30;97031.31;;;3.51;91.13
43155;BME280;34212;51.018;13.586;2022-12-08T08:13:32;97042.06;;;3.58;91.64
43155;BME280;34212;51.018;13.586;2022-12-08T08:18:34;97049.53;;;3.62;91.16
43155;BME280;34212;51.018;13.586;2022-12-08T08:23:36;97045.59;;;3.66;91.32
43155;BME280;34212;51.018;13.586;2022-12-08T08:28:38;97050.72;;;3.68;91.60
43155;BME280;34212;51.018;13.586;2022-12-08T08:33:39;97055.84;;;3.69;90.85
43155;BME280;34212;51.018;13.586;2022-12-08T08:38:41;97042.81;;;3.68;90.63
43155;BME280;34212;51.018;13.586;2022-12-08T08:43:44;97044.59;;;3.67;90.82
43155;BME280;34212;51.018;13.586;2022-12-08T08:48:45;97049.06;;;3.67;90.96
43155;BME280;34212;51.018;13.586;2022-12-08T08:53:47;97050.88;;;3.66;90.61
43155;BME280;34212;51.018;13.586;2022-12-08T08:58:50;97051.25;;;3.72;90.94
43155;BME280;34212;51.018;13.586;2022-12-08T09:03:53;97049.31;;;3.82;91.71
43155;BME280;34212;51.018;13.586;2022-12-08T09:08:55;97054.34;;;4.01;92.17
43155;BME280;34212;51.018;13.586;2022-12-08T09:13:56;97054.97;;;4.21;92.62
43155;BME280;34212;51.018;13.586;2022-12-08T09:18:58;97058.13;;;4.33;92.08
43155;BME280;34212;51.018;13.586;2022-12-08T09:24:00;97053.56;;;4.43;92.81
43155;BME280;34212;51.018;13.586;2022-12-08T09:29:02;97049.47;;;4.57;92.21
43155;BME280;34212;51.018;13.586;2022-12-08T09:34:04;97040.44;;;4.68;92.96
43155;BME280;34212;51.018;13.586;2022-12-08T09:39:05;97035.34;;;4.74;92.26
43155;BME280;34212;51.018;13.586;2022-12-08T09:49:32;97017.53;;;4.93;92.02
43155;BME280;34212;51.018;13.586;2022-12-08T09:54:35;97026.09;;;4.95;92.46
43155;BME280;34212;51.018;13.586;2022-12-08T09:59:37;97020.69;;;4.96;91.99
43155;BME280;34212;51.018;13.586;2022-12-08T10:04:39;97004.47;;;5.07;92.81
43155;BME280;34212;51.018;13.586;2022-12-08T10:10:13;97004.81;;;5.37;93.41
43155;BME280;34212;51.018;13.586;2022-12-08T10:15:44;96996.84;;;5.62;92.48
43155;BME280;34212;51.018;13.586;2022-12-08T10:20:49;96994.84;;;5.64;92.16
43155;BME280;34212;51.018;13.586;2022-12-08T10:25:57;96996.84;;;5.62;91.96
43155;BME280;34212;51.018;13.586;2022-12-08T10:31:00;97000.81;;;5.57;92.00
43155;BME280;34212;51.018;13.586;2022-12-08T10:36:02;96986.47;;;5.52;91.41
43155;BME280;34212;51.018;13.586;2022-12-08T10:46:09;96974.69;;;5.63;91.56
43155;BME280;34212;51.018;13.586;2022-12-08T10:51:28;96970.41;;;5.62;91.32
43155;BME280;34212;51.018;13.586;2022-12-08T10:56:30;96963.78;;;5.57;91.16
43155;BME280;34212;51.018;13.586;2022-12-08T11:01:36;96967.09;;;5.60;91.36
43155;BME280;34212;51.018;13.586;2022-12-08T11:06:39;96964.56;;;5.74;91.81
43155;BME280;34212;51.018;13.586;2022-12-08T11:16:50;96957.09;;;5.94;90.86
43155;BME280;34212;51.018;13.586;2022-12-08T11:21:54;96948.81;;;5.97;90.42
43155;BME280;34212;51.018;13.586;2022-12-08T11:27:01;96952.72;;;6.10;91.11
43155;BME280;34212;51.018;13.586;2022-12-08T11:32:11;96946.16;;;6.29;91.26
43155;BME280;34212;51.018;13.586;2022-12-08T11:37:24;96935.84;;;6.42;91.29
43155;BME280;34212;51.018;13.586;2022-12-08T11:48:29;96943.63;;;6.43;90.69
43155;BME280;34212;51.018;13.586;2022-12-08T11:53:42;96938.34;;;6.35;90.87
43155;BME280;34212;51.018;13.586;2022-12-08T11:58:52;96933.47;;;6.24;90.77
43155;BME280;34212;51.018;13.586;2022-12-08T12:04:10;96929.56;;;6.12;90.05
43155;BME280;34212;51.018;13.586;2022-12-08T12:19:47;96930.81;;;5.93;90.41
43155;BME280;34212;51.018;13.586;2022-12-08T12:24:51;96926.31;;;5.85;89.77
43155;BME280;34212;51.018;13.586;2022-12-08T12:29:56;96932.69;;;5.68;89.52
43155;BME280;34212;51.018;13.586;2022-12-08T12:34:59;96920.28;;;5.60;89.45
43155;BME280;34212;51.018;13.586;2022-12-08T12:40:04;96919.13;;;5.63;89.92
43155;BME280;34212;51.018;13.586;2022-12-08T13:00:46;96906.91;;;5.62;90.52
43155;BME280;34212;51.018;13.586;2022-12-08T13:05:50;96905.91;;;5.71;90.08
43155;BME280;34212;51.018;13.586;2022-12-08T13:11:02;96890.97;;;5.78;90.02
43155;BME280;34212;51.018;13.586;2022-12-08T13:16:13;96887.81;;;5.83;90.32
43155;BME280;34212;51.018;13.586;2022-12-08T13:21:22;96888.31;;;5.86;90.21
43155;BME280;34212;51.018;13.586;2022-12-08T13:26:25;96878.53;;;5.87;90.07
43155;BME280;34212;51.018;13.586;2022-12-08T13:31:46;96869.44;;;5.89;90.12
43155;BME280;34212;51.018;13.586;2022-12-08T13:37:03;96872.94;;;5.82;89.35
43155;BME280;34212;51.018;13.586;2022-12-08T13:47:17;96880.31;;;5.55;89.36
43155;BME280;34212;51.018;13.586;2022-12-08T13:52:37;96886.66;;;5.38;88.60
43155;BME280;34212;51.018;13.586;2022-12-08T13:58:02;96884.53;;;5.17;88.53
43155;BME280;34212;51.018;13.586;2022-12-08T14:03:03;96893.16;;;4.94;88.59
43155;BME280;34212;51.018;13.586;2022-12-08T14:08:14;96893.88;;;4.80;88.27
43155;BME280;34212;51.018;13.586;2022-12-08T14:13:39;96890.38;;;4.71;88.71
43155;BME280;34212;51.018;13.586;2022-12-08T14:18:40;96894.50;;;4.66;88.51
43155;BME280;34212;51.018;13.586;2022-12-08T14:23:45;96887.75;;;4.55;88.42
43155;BME280;34212;51.018;13.586;2022-12-08T14:28:48;96885.09;;;4.47;87.86
43155;BME280;34212;51.018;13.586;2022-12-08T14:33:50;96885.75;;;4.40;88.29
43155;BME280;34212;51.018;13.586;2022-12-08T14:38:57;96885.59;;;4.34;87.99
43155;BME280;34212;51.018;13.586;2022-12-08T14:44:00;96886.56;;;4.25;87.09
43155;BME280;34212;51.018;13.586;2022-12-08T14:49:01;96889.16;;;4.16;87.27
43155;BME280;34212;51.018;13.586;2022-12-08T14:54:12;96889.00;;;4.10;87.35
43155;BME280;34212;51.018;13.586;2022-12-08T15:04:27;96892.09;;;3.97;87.80
43155;BME280;34212;51.018;13.586;2022-12-08T15:09:34;96893.41;;;3.93;87.25
43155;BME280;34212;51.018;13.586;2022-12-08T15:14:38;96897.69;;;3.94;87.77
43155;BME280;34212;51.018;13.586;2022-12-08T15:19:40;96894.75;;;3.97;87.93
43155;BME280;34212;51.018;13.586;2022-12-08T15:24:42;96902.47;;;3.99;88.22
43155;BME280;34212;51.018;13.586;2022-12-08T15:29:45;96898.06;;;3.99;87.77
43155;BME280;34212;51.018;13.586;2022-12-08T15:34:47;96903.00;;;4.02;88.00
43155;BME280;34212;51.018;13.586;2022-12-08T15:39:49;96896.38;;;3.98;88.32
43155;BME280;34212;51.018;13.586;2022-12-08T15:44:50;96898.19;;;3.98;87.90
43155;BME280;34212;51.018;13.586;2022-12-08T15:49:52;96896.38;;;3.98;87.95
43155;BME280;34212;51.018;13.586;2022-12-08T15:54:53;96899.34;;;3.95;87.78
43155;BME280;34212;51.018;13.586;2022-12-08T15:59:55;96903.63;;;3.88;87.20
43155;BME280;34212;51.018;13.586;2022-12-08T16:04:56;96895.66;;;3.80;87.22
43155;BME280;34212;51.018;13.586;2022-12-08T16:10:20;96897.66;;;3.78;87.54
43155;BME280;34212;51.018;13.586;2022-12-08T16:15:22;96902.44;;;3.82;88.13
43155;BME280;34212;51.018;13.586;2022-12-08T16:20:44;96897.34;;;3.89;87.90
43155;BME280;34212;51.018;13.586;2022-12-08T16:26:10;96890.47;;;3.96;88.48
43155;BME280;34212;51.018;13.586;2022-12-08T16:31:32;96901.34;;;4.01;88.39
43155;BME280;34212;51.018;13.586;2022-12-08T16:36:34;96896.25;;;4.08;88.73
43155;BME280;34212;51.018;13.586;2022-12-08T16:41:35;96900.72;;;4.15;88.99
43155;BME280;34212;51.018;13.586;2022-12-08T16:46:55;96892.16;;;4.22;88.66
43155;BME280;34212;51.018;13.586;2022-12-08T16:51:57;96900.75;;;4.24;88.97
43155;BME280;34212;51.018;13.586;2022-12-08T16:56:58;96892.97;;;4.22;88.82
43155;BME280;34212;51.018;13.586;2022-12-08T17:01:59;96899.09;;;4.23;88.79
43155;BME280;34212;51.018;13.586;2022-12-08T17:07:01;96900.91;;;4.22;88.78
43155;BME280;34212;51.018;13.586;2022-12-08T17:12:02;96891.84;;;4.25;88.96
43155;BME280;34212;51.018;13.586;2022-12-08T17:17:04;96897.75;;;4.27;88.73
43155;BME280;34212;51.018;13.586;2022-12-08T17:22:06;96897.94;;;4.25;88.56
43155;BME280;34212;51.018;13.586;2022-12-08T17:27:08;96898.13;;;4.24;88.91
43155;BME280;34212;51.018;13.586;2022-12-08T17:32:09;96905.69;;;4.27;89.33
43155;BME280;34212;51.018;13.586;2022-12-08T17:37:11;96899.75;;;4.33;88.92
43155;BME280;34212;51.018;13.586;2022-12-08T17:42:13;96906.06;;;4.40;89.13
43155;BME280;34212;51.018;13.586;2022-12-08T17:47:14;96900.94;;;4.47;89.72
43155;BME280;34212;51.018;13.586;2022-12-08T17:52:16;96895.34;;;4.50;89.83
43155;BME280;34212;51.018;13.586;2022-12-08T17:57:17;96897.47;;;4.54;89.26
43155;BME280;34212;51.018;13.586;2022-12-08T18:02:18;96907.38;;;4.60;89.89
43155;BME280;34212;51.018;13.586;2022-12-08T18:07:20;96900.94;;;4.63;89.61
43155;BME280;34212;51.018;13.586;2022-12-08T18:12:22;96905.91;;;4.66;89.60
43155;BME280;34212;51.018;13.586;2022-12-08T18:17:24;96908.06;;;4.71;90.05
43155;BME280;34212;51.018;13.586;2022-12-08T18:22:26;96908.06;;;4.71;88.96
43155;BME280;34212;51.018;13.586;2022-12-08T18:27:27;96904.75;;;4.69;89.20
43155;BME280;34212;51.018;13.586;2022-12-08T18:32:29;96910.03;;;4.69;89.29
43155;BME280;34212;51.018;13.586;2022-12-08T18:37:30;96906.72;;;4.67;89.25
43155;BME280;34212;51.018;13.586;2022-12-08T18:42:31;96907.38;;;4.69;89.44
43155;BME280;34212;51.018;13.586;2022-12-08T18:47:35;96902.94;;;4.69;89.52
43155;BME280;34212;51.018;13.586;2022-12-08T18:52:37;96899.13;;;4.72;89.49
43155;BME280;34212;51.018;13.586;2022-12-08T18:57:39;96900.28;;;4.77;89.54
43155;BME280;34212;51.018;13.586;2022-12-08T19:02:42;96906.06;;;4.81;89.42
43155;BME280;34212;51.018;13.586;2022-12-08T19:07:44;96899.78;;;4.82;89.60
43155;BME280;34212;51.018;13.586;2022-12-08T19:12:50;96907.22;;;4.86;89.21
43155;BME280;34212;51.018;13.586;2022-12-08T19:17:52;96910.03;;;4.85;89.06
43155;BME280;34212;51.018;13.586;2022-12-08T19:22:54;96909.88;;;4.86;89.47
43155;BME280;34212;51.018;13.586;2022-12-08T19:27:55;96916.97;;;4.86;88.97
43155;BME280;34212;51.018;13.586;2022-12-08T19:32:56;96912.03;;;4.83;88.67
43155;BME280;34212;51.018;13.586;2022-12-08T19:37:58;96915.00;;;4.80;89.21
43155;BME280;34212;51.018;13.586;2022-12-08T19:42:59;96915.00;;;4.80;88.84
43155;BME280;34212;51.018;13.586;2022-12-08T19:48:19;96912.16;;;4.81;89.21
43155;BME280;34212;51.018;13.586;2022-12-08T19:53:21;96919.28;;;4.81;88.40
43155;BME280;34212;51.018;13.586;2022-12-08T19:58:24;96919.28;;;4.81;89.04
43155;BME280;34212;51.018;13.586;2022-12-08T20:03:26;96922.06;;;4.79;89.07
43155;BME280;34212;51.018;13.586;2022-12-08T20:08:27;96931.66;;;4.80;89.06
43155;BME280;34212;51.018;13.586;2022-12-08T20:13:29;96928.19;;;4.80;88.59
43155;BME280;34212;51.018;13.586;2022-12-08T20:18:44;96927.19;;;4.73;89.02
43155;BME280;34212;51.018;13.586;2022-12-08T20:23:48;96930.81;;;4.72;88.61
43155;BME280;34212;51.018;13.586;2022-12-08T20:28:50;96931.16;;;4.69;88.89
43155;BME280;34212;51.018;13.586;2022-12-08T20:33:52;96924.38;;;4.66;89.01
43155;BME280;34212;51.018;13.586;2022-12-08T20:38:54;96934.44;;;4.62;88.69
43155;BME280;34212;51.018;13.586;2022-12-08T20:43:55;96939.38;;;4.57;88.91
43155;BME280;34212;51.018;13.586;2022-12-08T20:48:57;96938.75;;;4.55;89.21
43155;BME280;34212;51.018;13.586;2022-12-08T20:54:01;96941.72;;;4.52;88.49
43155;BME280;34212;51.018;13.586;2022-12-08T20:59:04;96944.00;;;4.47;88.93
43155;BME280;34212;51.018;13.586;2022-12-08T21:04:10;96941.38;;;4.47;89.04
43155;BME280;34212;51.018;13.586;2022-12-08T21:09:11;96944.66;;;4.41;88.67
43155;BME280;34212;51.018;13.586;2022-12-08T21:14:13;96936.06;;;4.39;89.37
43155;BME280;34212;51.018;13.586;2022-12-08T21:19:15;96939.56;;;4.39;89.18
43155;BME280;34212;51.018;13.586;2022-12-08T21:24:17;96936.38;;;4.36;88.84
43155;BME280;34212;51.018;13.586;2022-12-08T21:29:19;96947.44;;;4.31;89.39
43155;BME280;34212;51.018;13.586;2022-12-08T21:34:20;96952.53;;;4.33;89.02
43155;BME280;34212;51.018;13.586;2022-12-08T21:39:22;96949.59;;;4.28;89.20
43155;BME280;34212;51.018;13.586;2022-12-08T21:44:24;96961.09;;;4.19;88.65
43155;BME280;34212;51.018;13.586;2022-12-08T21:49:26;96959.78;;;4.14;88.58
43155;BME280;34212;51.018;13.586;2022-12-08T21:54:27;96950.53;;;4.19;88.93
43155;BME280;34212;51.018;13.586;2022-12-08T21:59:29;96955.19;;;4.25;88.72
43155;BME280;34212;51.018;13.586;2022-12-08T22:04:30;96960.97;;;4.28;89.47
43155;BME280;34212;51.018;13.586;2022-12-08T22:09:32;96954.53;;;4.31;89.28
43155;BME280;34212;51.018;13.586;2022-12-08T22:14:34;96949.91;;;4.33;89.40
43155;BME280;34212;51.018;13.586;2022-12-08T22:19:35;96960.31;;;4.34;88.93
43155;BME280;34212;51.018;13.586;2022-12-08T22:24:37;96952.72;;;4.31;88.51
43155;BME280;34212;51.018;13.586;2022-12-08T22:29:38;96950.91;;;4.32;89.60
43155;BME280;34212;51.018;13.586;2022-12-08T22:34:40;96956.69;;;4.35;89.17
43155;BME280;34212;51.018;13.586;2022-12-08T22:39:41;96950.94;;;4.40;89.26
43155;BME280;34212;51.018;13.586;2022-12-08T22:44:43;96945.16;;;4.45;88.62
43155;BME280;34212;51.018;13.586;2022-12-08T22:49:44;96960.53;;;4.49;88.95
43155;BME280;34212;51.018;13.586;2022-12-08T22:54:46;96955.75;;;4.53;89.04
43155;BME280;34212;51.018;13.586;2022-12-08T22:59:48;96950.13;;;4.56;88.84
43155;BME280;34212;51.018;13.586;2022-12-08T23:04:49;96956.22;;;4.56;89.01
43155;BME280;34212;51.018;13.586;2022-12-08T23:09:51;96957.06;;;4.57;89.19
43155;BME280;34212;51.018;13.586;2022-12-08T23:14:53;96956.56;;;4.61;88.67
43155;BME280;34212;51.018;13.586;2022-12-08T23:19:54;96964.00;;;4.66;88.55
43155;BME280;34212;51.018;13.586;2022-12-08T23:24:56;96955.94;;;4.68;88.60
43155;BME280;34212;51.018;13.586;2022-12-08T23:29:57;96955.06;;;4.67;88.53
43155;BME280;34212;51.018;13.586;2022-12-08T23:34:59;96963.00;;;4.67;88.71
43155;BME280;34212;51.018;13.586;2022-12-08T23:40:02;96955.94;;;4.68;88.65
43155;BME280;34212;51.018;13.586;2022-12-08T23:45:05;96950.66;;;4.68;88.62
43155;BME280;34212;51.018;13.586;2022-12-08T23:50:08;96957.06;;;4.65;88.38
43155;BME280;34212;51.018;13.586;2022-12-08T23:55:11;96952.63;;;4.66;88.88
